Time;durP1;ratioP1;P1;durP2;ratioP2;P2;SDS_P1;SDS_P2;PMS_P1;PMS_P2;Temp;Humidity;BMP_temperature;BMP_pressure;BME280_temperature;BME280_humidity;BME280_pressure;Samples;Min_cycle;Max_cycle;Signal;HPM_P1;HPM_P2
2021/05/21 00:00:35;;;;;;;6.78;3.20;;;10.40;99.90;;;;;;5010244;28;20108;-67
2021/05/21 00:03:03;;;;;;;4.90;2.92;;;10.40;99.90;;;;;;5009226;28;20128;-67
2021/05/21 00:05:29;;;;;;;4.93;2.72;;;10.50;99.90;;;;;;5011244;28;20022;-67
2021/05/21 00:07:54;;;;;;;6.70;3.17;;;10.40;99.90;;;;;;5009519;28;20042;-67
2021/05/21 00:10:21;;;;;;;8.50;2.85;;;10.40;99.90;;;;;;5009812;28;20025;-67
2021/05/21 00:12:46;;;;;;;10.20;3.38;;;10.30;99.90;;;;;;5010747;28;20475;-67
2021/05/21 00:15:13;;;;;;;5.22;3.08;;;10.30;99.90;;;;;;5011086;28;20109;-67
2021/05/21 00:17:39;;;;;;;7.65;2.92;;;10.20;99.90;;;;;;5009861;28;20030;-67
2021/05/21 00:20:05;;;;;;;5.95;3.08;;;10.20;99.90;;;;;;5009862;28;20057;-67
2021/05/21 00:22:30;;;;;;;6.57;3.00;;;10.20;99.90;;;;;;5010682;28;20050;-67
2021/05/21 00:24:56;;;;;;;6.30;3.30;;;10.20;99.90;;;;;;5011135;28;20558;-67
2021/05/21 00:27:22;;;;;;;8.88;3.50;;;10.10;99.90;;;;;;5011052;28;20056;-68
2021/05/21 00:29:47;;;;;;;5.53;2.97;;;10.10;99.90;;;;;;5011166;28;20380;-67
2021/05/21 00:32:13;;;;;;;7.43;3.50;;;10.10;99.90;;;;;;5010507;28;20041;-67
2021/05/21 00:34:39;;;;;;;6.28;3.22;;;10.20;99.90;;;;;;5011682;28;20021;-67
2021/05/21 00:37:04;;;;;;;5.25;3.05;;;10.10;99.90;;;;;;5009866;28;20034;-67
2021/05/21 00:39:30;;;;;;;6.55;3.60;;;10.20;99.90;;;;;;5010993;28;20511;-67
2021/05/21 00:41:56;;;;;;;6.05;3.13;;;10.10;99.90;;;;;;5008998;28;20484;-67
2021/05/21 00:44:21;;;;;;;6.85;2.95;;;10.10;99.90;;;;;;5010912;28;20480;-67
2021/05/21 00:46:47;;;;;;;6.07;3.50;;;10.20;99.90;;;;;;5010704;28;20054;-67
2021/05/21 00:49:17;;;;;;;7.07;3.20;;;10.10;99.90;;;;;;5010612;28;20105;-67
2021/05/21 00:51:47;;;;;;;5.40;3.10;;;10.10;99.90;;;;;;5010149;28;20445;-67
2021/05/21 00:54:17;;;;;;;6.38;3.42;;;10.00;99.90;;;;;;5010980;28;20318;-67
2021/05/21 00:56:43;;;;;;;6.82;3.15;;;10.00;99.90;;;;;;5010800;28;20068;-67
2021/05/21 00:59:08;;;;;;;8.85;3.20;;;9.90;99.90;;;;;;5010513;28;20026;-67
2021/05/21 01:01:35;;;;;;;6.07;3.22;;;9.90;99.90;;;;;;5010227;28;20033;-67
2021/05/21 01:04:00;;;;;;;5.07;3.10;;;9.90;99.90;;;;;;5011200;28;20022;-67
2021/05/21 01:06:26;;;;;;;6.35;3.22;;;10.00;99.90;;;;;;5010685;28;20025;-67
2021/05/21 01:08:51;;;;;;;7.45;3.15;;;9.90;99.90;;;;;;5010413;28;20030;-67
2021/05/21 01:11:17;;;;;;;7.28;2.80;;;9.90;99.90;;;;;;5009801;28;20380;-67
2021/05/21 01:13:43;;;;;;;6.63;3.35;;;9.90;99.90;;;;;;5011179;28;20029;-67
2021/05/21 01:16:08;;;;;;;7.40;3.30;;;9.90;99.90;;;;;;5014169;28;20436;-67
2021/05/21 01:18:34;;;;;;;6.47;3.00;;;10.00;99.90;;;;;;5014140;28;20033;-68
2021/05/21 01:21:00;;;;;;;5.63;3.15;;;9.90;99.90;;;;;;5014020;28;20399;-67
2021/05/21 01:23:26;;;;;;;6.45;3.45;;;10.00;99.90;;;;;;5013446;28;20058;-67
2021/05/21 01:25:52;;;;;;;5.95;3.33;;;9.90;99.90;;;;;;5012835;28;20049;-67
2021/05/21 01:28:19;;;;;;;6.80;3.60;;;9.90;99.90;;;;;;5013850;28;20522;-67
2021/05/21 01:30:45;;;;;;;5.72;3.30;;;9.80;99.90;;;;;;5013783;28;20022;-67
2021/05/21 01:33:11;;;;;;;5.57;3.00;;;10.00;99.90;;;;;;5013180;28;20033;-67
2021/05/21 01:35:38;;;;;;;6.85;3.50;;;10.00;99.90;;;;;;5012583;28;20026;-67
2021/05/21 01:38:04;;;;;;;8.13;3.20;;;10.00;99.90;;;;;;5013833;28;20037;-67
2021/05/21 01:40:30;;;;;;;5.93;3.30;;;9.90;99.90;;;;;;5012384;28;20034;-67
2021/05/21 01:42:57;;;;;;;6.30;3.30;;;9.90;99.90;;;;;;5012991;28;20177;-67
2021/05/21 01:45:22;;;;;;;6.03;3.22;;;9.90;99.90;;;;;;5013638;28;20112;-67
2021/05/21 01:47:48;;;;;;;7.63;3.30;;;10.00;99.90;;;;;;5013605;28;20105;-67
2021/05/21 01:50:15;;;;;;;5.05;3.17;;;10.00;99.90;;;;;;5013604;28;20054;-67
2021/05/21 01:52:41;;;;;;;4.85;2.90;;;10.00;99.90;;;;;;5012900;28;20396;-67
2021/05/21 01:55:07;;;;;;;10.07;3.72;;;10.00;99.90;;;;;;5013553;28;20534;-67
2021/05/21 01:57:35;;;;;;;9.57;3.40;;;10.00;99.90;;;;;;5013475;28;20496;-67
2021/05/21 02:00:03;;;;;;;5.15;3.03;;;10.10;99.90;;;;;;5013493;28;20049;-67
2021/05/21 02:02:28;;;;;;;4.32;2.65;;;10.10;99.90;;;;;;5012770;28;20045;-67
2021/05/21 02:04:54;;;;;;;6.65;3.20;;;10.10;99.90;;;;;;5012056;28;20022;-67
2021/05/21 02:07:20;;;;;;;4.75;2.75;;;10.10;99.90;;;;;;5013276;28;20041;-68
2021/05/21 02:09:53;;;;;;;4.78;2.90;;;10.00;99.90;;;;;;5013266;28;20052;-67
2021/05/21 02:12:18;;;;;;;4.97;2.58;;;10.00;99.90;;;;;;5012539;28;20105;-67
2021/05/21 02:14:44;;;;;;;7.70;3.20;;;10.00;99.90;;;;;;5013333;28;20054;-67
2021/05/21 02:17:09;;;;;;;5.85;3.10;;;10.00;99.90;;;;;;5013262;28;20060;-67
2021/05/21 02:19:35;;;;;;;5.40;3.05;;;10.00;99.90;;;;;;5008942;28;20065;-67
2021/05/21 02:22:01;;;;;;;6.97;2.70;;;10.00;99.90;;;;;;5011480;28;20072;-67
2021/05/21 02:24:26;;;;;;;5.30;2.70;;;10.00;99.90;;;;;;5013513;28;20472;-67
2021/05/21 02:26:52;;;;;;;5.35;3.15;;;10.00;99.90;;;;;;5013132;28;20030;-68
2021/05/21 02:29:18;;;;;;;5.60;3.03;;;9.90;99.90;;;;;;5012875;28;20553;-68
2021/05/21 02:31:43;;;;;;;5.05;2.85;;;9.80;99.90;;;;;;5012170;28;20026;-67
2021/05/21 02:34:09;;;;;;;8.45;3.53;;;9.90;99.90;;;;;;5012805;28;20488;-67
2021/05/21 02:36:35;;;;;;;7.38;3.10;;;9.90;99.90;;;;;;5012697;28;20477;-67
2021/05/21 02:39:01;;;;;;;5.95;2.85;;;9.80;99.90;;;;;;5011121;28;20117;-67
2021/05/21 02:41:26;;;;;;;5.55;3.03;;;9.80;99.90;;;;;;5012092;28;20029;-67
2021/05/21 02:43:52;;;;;;;5.32;2.90;;;10.00;99.90;;;;;;5012853;28;20022;-67
2021/05/21 02:46:17;;;;;;;7.70;3.13;;;9.90;99.90;;;;;;5012629;28;20032;-67
2021/05/21 02:48:43;;;;;;;6.70;3.15;;;9.90;99.90;;;;;;5012287;28;20124;-67
2021/05/21 02:51:08;;;;;;;5.10;2.72;;;9.90;99.90;;;;;;5012273;28;20045;-67
2021/05/21 02:53:35;;;;;;;5.38;3.10;;;9.90;99.90;;;;;;5011842;28;20041;-67
2021/05/21 02:56:00;;;;;;;6.13;3.22;;;9.90;99.90;;;;;;5012418;28;20499;-67
2021/05/21 02:58:26;;;;;;;6.95;3.10;;;9.90;99.90;;;;;;5012294;28;20037;-67
2021/05/21 03:00:52;;;;;;;6.40;2.92;;;9.90;99.90;;;;;;5012248;28;20092;-67
2021/05/21 03:03:17;;;;;;;6.28;2.90;;;9.90;99.90;;;;;;5011554;28;20488;-67
2021/05/21 03:05:42;;;;;;;5.65;2.75;;;9.80;99.90;;;;;;5012236;28;20381;-67
2021/05/21 03:08:09;;;;;;;7.72;2.67;;;9.90;99.90;;;;;;5012035;28;20026;-67
2021/05/21 03:10:35;;;;;;;5.07;3.05;;;9.90;99.90;;;;;;5012031;28;20076;-67
2021/05/21 03:13:00;;;;;;;5.68;2.97;;;9.90;99.90;;;;;;5011531;28;20022;-67
2021/05/21 03:15:28;;;;;;;5.97;2.63;;;9.90;99.90;;;;;;5012258;28;20030;-67
2021/05/21 03:17:53;;;;;;;5.60;2.88;;;10.00;99.90;;;;;;5011961;28;20033;-67
2021/05/21 03:20:20;;;;;;;4.78;2.65;;;10.00;99.90;;;;;;5011888;28;20030;-67
2021/05/21 03:22:46;;;;;;;5.72;2.65;;;10.00;99.90;;;;;;5011166;28;20033;-67
2021/05/21 03:25:12;;;;;;;5.30;2.90;;;10.00;99.90;;;;;;5011856;28;20030;-67
2021/05/21 03:27:38;;;;;;;5.95;2.80;;;10.00;99.90;;;;;;5011797;28;20467;-67
2021/05/21 03:30:08;;;;;;;4.72;2.47;;;10.00;99.90;;;;;;5011751;28;20017;-67
2021/05/21 03:32:34;;;;;;;5.60;2.67;;;9.90;99.90;;;;;;5011036;28;20493;-68
2021/05/21 03:35:00;;;;;;;6.35;2.75;;;9.90;99.90;;;;;;5011646;28;20025;-67
2021/05/21 03:37:25;;;;;;;6.03;2.58;;;9.90;99.90;;;;;;5011034;28;20032;-67
2021/05/21 03:39:51;;;;;;;5.97;2.70;;;9.90;99.90;;;;;;5011564;28;20391;-67
2021/05/21 03:42:17;;;;;;;3.83;2.40;;;9.80;99.90;;;;;;5010852;28;20076;-67
2021/05/21 03:44:43;;;;;;;6.88;2.40;;;9.90;99.90;;;;;;5011494;28;20034;-67
2021/05/21 03:47:09;;;;;;;4.80;2.42;;;10.00;99.90;;;;;;5011332;28;20026;-68
2021/05/21 03:49:34;;;;;;;3.75;1.85;;;10.00;99.90;;;;;;5011273;28;20117;-67
2021/05/21 03:52:00;;;;;;;5.38;2.90;;;10.20;99.90;;;;;;5010785;28;20064;-68
2021/05/21 03:54:26;;;;;;;4.50;2.15;;;10.30;99.90;;;;;;5010337;28;20022;-67
2021/05/21 03:56:52;;;;;;;6.20;2.25;;;10.50;99.90;;;;;;5011338;28;20018;-67
2021/05/21 03:59:18;;;;;;;5.20;2.35;;;10.70;99.90;;;;;;5011238;28;20022;-68
2021/05/21 04:01:46;;;;;;;9.93;2.33;;;10.80;99.90;;;;;;5010628;28;20026;-67
2021/05/21 04:04:11;;;;;;;5.15;2.17;;;10.80;99.90;;;;;;5011214;28;20388;-68
2021/05/21 04:06:37;;;;;;;6.57;2.35;;;10.70;99.90;;;;;;5011147;28;20097;-67
2021/05/21 04:09:06;;;;;;;3.78;1.95;;;10.90;99.90;;;;;;5009652;28;20045;-67
2021/05/21 04:11:36;;;;;;;4.95;2.05;;;11.00;99.90;;;;;;5010457;28;20097;-68
2021/05/21 04:14:02;;;;;;;4.87;1.97;;;11.00;99.90;;;;;;5011194;28;20258;-68
2021/05/21 04:16:28;;;;;;;8.60;2.10;;;10.90;99.90;;;;;;5011074;28;20057;-68
2021/05/21 04:18:53;;;;;;;7.18;2.38;;;10.90;99.90;;;;;;5011470;28;20061;-67
2021/05/21 04:21:20;;;;;;;4.38;2.47;;;10.80;99.90;;;;;;5010380;28;20319;-67
2021/05/21 04:23:46;;;;;;;3.42;1.83;;;10.80;99.90;;;;;;5011042;28;20515;-67
2021/05/21 04:26:12;;;;;;;4.78;2.30;;;10.90;99.90;;;;;;5011037;28;20365;-68
2021/05/21 04:28:38;;;;;;;3.72;1.90;;;10.90;99.90;;;;;;5010768;28;20029;-68
2021/05/21 04:31:04;;;;;;;5.40;1.90;;;11.20;99.90;;;;;;5011221;28;20049;-67
2021/05/21 04:33:29;;;;;;;4.43;1.88;;;11.30;99.90;;;;;;5010221;28;20022;-67
2021/05/21 04:35:55;;;;;;;18.30;7.93;;;11.50;99.90;;;;;;5009600;28;20306;-68
2021/05/21 04:38:21;;;;;;;7.78;4.35;;;11.60;99.90;;;;;;5009436;28;20041;-68
2021/05/21 04:40:46;;;;;;;6.75;2.65;;;11.70;99.90;;;;;;5010546;28;20029;-68
2021/05/21 04:43:12;;;;;;;4.15;1.67;;;11.80;99.90;;;;;;5009928;28;20618;-68
2021/05/21 04:45:37;;;;;;;4.10;1.60;;;12.10;99.90;;;;;;5010803;28;20030;-67
2021/05/21 04:48:03;;;;;;;3.60;1.60;;;12.30;99.90;;;;;;5011140;28;20034;-67
2021/05/21 04:50:29;;;;;;;5.43;1.67;;;12.50;99.60;;;;;;5014049;28;20034;-66
2021/05/21 04:52:54;;;;;;;3.28;1.50;;;12.50;99.70;;;;;;5013943;28;20037;-65
2021/05/21 04:55:21;;;;;;;4.22;1.67;;;12.60;99.60;;;;;;5013377;28;20014;-66
2021/05/21 04:57:49;;;;;;;3.78;1.70;;;12.70;98.90;;;;;;5014611;28;20025;-67
2021/05/21 05:00:16;;;;;;;3.92;1.60;;;12.80;99.00;;;;;;5014557;28;20022;-66
2021/05/21 05:02:43;;;;;;;4.57;1.75;;;12.80;99.20;;;;;;5012435;28;20026;-68
2021/05/21 05:05:09;;;;;;;4.95;1.73;;;12.70;98.90;;;;;;5014339;28;20022;-67
2021/05/21 05:07:34;;;;;;;5.18;1.60;;;12.70;99.10;;;;;;5013078;28;20038;-68
2021/05/21 05:10:00;;;;;;;5.65;1.50;;;12.80;98.80;;;;;;5014338;28;20024;-67
2021/05/21 05:12:25;;;;;;;3.97;1.65;;;12.80;98.90;;;;;;5013774;28;20480;-66
2021/05/21 05:14:51;;;;;;;5.13;1.70;;;12.80;99.00;;;;;;5014323;28;20080;-66
2021/05/21 05:17:16;;;;;;;5.40;1.73;;;12.80;99.70;;;;;;5025434;28;20515;-67
2021/05/21 05:19:42;;;;;;;5.22;1.50;;;12.80;99.90;;;;;;5034002;28;20086;-66
2021/05/21 05:22:08;;;;;;;4.05;1.67;;;12.90;99.10;;;;;;5033380;28;20029;-66
2021/05/21 05:24:34;;;;;;;3.25;1.73;;;12.90;98.90;;;;;;5034012;28;20071;-65
2021/05/21 05:27:00;;;;;;;4.65;1.70;;;12.90;98.80;;;;;;5032808;28;20026;-67
2021/05/21 05:29:26;;;;;;;4.28;1.70;;;13.00;99.10;;;;;;5033991;28;20021;-66
2021/05/21 05:31:53;;;;;;;7.07;2.50;;;13.10;99.50;;;;;;5033161;28;20479;-67
2021/05/21 05:34:18;;;;;;;7.13;2.40;;;13.10;99.00;;;;;;5033819;28;20025;-66
2021/05/21 05:36:44;;;;;;;3.20;1.60;;;13.20;99.30;;;;;;5033672;28;20030;-66
2021/05/21 05:39:10;;;;;;;5.60;1.73;;;13.30;98.80;;;;;;5032594;28;20104;-67
2021/05/21 05:41:36;;;;;;;3.28;1.58;;;13.50;98.40;;;;;;5033084;28;20132;-67
2021/05/21 05:44:02;;;;;;;7.10;1.73;;;13.60;98.10;;;;;;5033699;28;20057;-67
2021/05/21 05:46:27;;;;;;;4.70;2.28;;;13.60;98.00;;;;;;5033598;28;20033;-67
2021/05/21 05:48:53;;;;;;;4.90;2.00;;;13.60;98.60;;;;;;5042113;23;20042;-64
2021/05/21 05:51:18;;;;;;;4.80;1.70;;;13.80;99.00;;;;;;5026933;28;20030;-64
2021/05/21 05:53:44;;;;;;;2.80;1.40;;;13.80;97.50;;;;;;5020071;28;20026;-63
2021/05/21 05:56:09;;;;;;;6.22;2.28;;;13.70;97.70;;;;;;5018133;28;20373;-64
2021/05/21 05:58:35;;;;;;;7.32;2.00;;;13.90;98.80;;;;;;5032402;28;20254;-65
2021/05/21 06:01:01;;;;;;;3.15;1.60;;;14.00;98.50;;;;;;5015840;28;20061;-64
2021/05/21 06:03:28;;;;;;;3.53;1.60;;;14.10;97.30;;;;;;5016350;28;20061;-64
2021/05/21 06:05:54;;;;;;;5.57;1.85;;;14.10;97.80;;;;;;5020089;28;20057;-64
2021/05/21 06:08:20;;;;;;;4.72;1.35;;;13.90;97.10;;;;;;5012200;28;20055;-64
2021/05/21 06:10:45;;;;;;;2.63;1.27;;;13.90;97.90;;;;;;5021690;28;20653;-64
2021/05/21 06:13:11;;;;;;;3.70;1.40;;;13.90;98.10;;;;;;5012517;28;20026;-64
2021/05/21 06:15:38;;;;;;;3.08;1.45;;;14.00;99.10;;;;;;5012719;28;20097;-64
2021/05/21 06:18:04;;;;;;;5.18;1.60;;;14.00;99.90;;;;;;5025761;28;20136;-64
2021/05/21 06:20:31;;;;;;;3.47;1.50;;;14.00;97.60;;;;;;5031062;28;20648;-63
2021/05/21 06:22:58;;;;;;;5.50;1.50;;;14.10;98.90;;;;;;5032295;28;20022;-64
2021/05/21 06:28:08;;;;;;;3.88;1.40;;;14.30;98.50;;;;;;5032822;28;20510;-64
2021/05/21 06:30:34;;;;;;;4.65;1.60;;;14.40;97.40;;;;;;5032712;28;20021;-64
2021/05/21 06:32:59;;;;;;;4.70;1.27;;;14.50;97.30;;;;;;5032492;28;20399;-64
2021/05/21 06:35:26;;;;;;;4.40;1.70;;;14.60;96.80;;;;;;5032651;28;20025;-63
2021/05/21 06:37:52;;;;;;;4.53;1.55;;;14.70;97.90;;;;;;5032730;28;20022;-64
2021/05/21 06:40:18;;;;;;;2.50;1.25;;;14.90;96.20;;;;;;5032536;28;20025;-64
2021/05/21 06:42:44;;;;;;;5.22;1.65;;;14.70;96.10;;;;;;5032281;28;20048;-64
2021/05/21 06:45:10;;;;;;;4.60;1.38;;;14.60;96.70;;;;;;5032548;28;20057;-64
2021/05/21 06:47:35;;;;;;;3.47;1.60;;;14.60;97.20;;;;;;5032339;28;20021;-64
2021/05/21 06:50:01;;;;;;;3.33;1.73;;;14.50;97.10;;;;;;5032154;28;20029;-64
2021/05/21 06:52:27;;;;;;;4.28;1.70;;;14.40;97.20;;;;;;5032142;28;20024;-65
2021/05/21 06:54:53;;;;;;;8.95;1.85;;;14.60;97.10;;;;;;5032343;28;20500;-64
2021/05/21 06:57:19;;;;;;;5.72;1.50;;;14.60;98.30;;;;;;5032218;28;20025;-64
2021/05/21 06:59:45;;;;;;;4.88;2.00;;;14.80;97.70;;;;;;5032197;28;20028;-64
2021/05/21 07:02:10;;;;;;;3.35;1.50;;;14.80;97.00;;;;;;5031900;28;20112;-64
2021/05/21 07:04:36;;;;;;;3.22;1.30;;;15.00;97.70;;;;;;5032115;28;20053;-64
2021/05/21 07:07:02;;;;;;;3.47;1.40;;;15.20;97.80;;;;;;5032060;28;20036;-64
2021/05/21 07:09:27;;;;;;;3.22;1.17;;;15.40;98.30;;;;;;5027196;28;20049;-64
2021/05/21 07:11:53;;;;;;;3.60;1.25;;;15.60;97.70;;;;;;5015697;28;20575;-64
2021/05/21 07:14:19;;;;;;;3.60;1.45;;;15.70;97.80;;;;;;5012021;28;20083;-64
2021/05/21 07:16:44;;;;;;;4.07;1.30;;;15.70;95.70;;;;;;5012248;28;20018;-65
2021/05/21 07:19:15;;;;;;;2.95;1.17;;;15.80;96.30;;;;;;5012057;28;20044;-64
2021/05/21 07:21:41;;;;;;;3.00;1.15;;;15.90;95.80;;;;;;5011896;28;20018;-65
2021/05/21 07:24:07;;;;;;;4.88;1.13;;;15.90;96.30;;;;;;5012116;28;20033;-63
2021/05/21 07:26:33;;;;;;;3.33;1.35;;;15.90;96.60;;;;;;5011986;28;20045;-64
2021/05/21 07:28:59;;;;;;;3.97;1.30;;;16.10;97.10;;;;;;5027888;28;20025;-64
2021/05/21 07:31:27;;;;;;;4.57;1.40;;;16.20;96.90;;;;;;5031431;28;20452;-64
2021/05/21 07:33:55;;;;;;;3.25;1.40;;;16.30;95.00;;;;;;5031644;28;20104;-65
2021/05/21 07:36:23;;;;;;;4.55;1.15;;;16.40;96.70;;;;;;5031561;28;20549;-65
2021/05/21 07:38:49;;;;;;;4.65;1.10;;;16.60;95.30;;;;;;5031613;28;20021;-65
2021/05/21 07:41:16;;;;;;;4.75;1.33;;;16.80;95.80;;;;;;5031563;28;20025;-65
2021/05/21 07:43:41;;;;;;;2.53;1.20;;;16.70;94.80;;;;;;5031775;28;20026;-65
2021/05/21 07:46:08;;;;;;;3.05;1.15;;;16.70;94.50;;;;;;5031582;28;20543;-65
2021/05/21 07:48:34;;;;;;;5.13;1.30;;;16.70;94.00;;;;;;5031493;28;20040;-65
2021/05/21 07:50:59;;;;;;;2.85;1.33;;;16.80;93.60;;;;;;5030489;28;20108;-65
2021/05/21 07:53:25;;;;;;;5.07;1.08;;;17.00;93.30;;;;;;5031478;28;20017;-65
2021/05/21 07:55:50;;;;;;;4.10;1.20;;;17.10;94.30;;;;;;5031590;28;20026;-66
2021/05/21 07:58:16;;;;;;;6.00;0.90;;;17.10;92.40;;;;;;5031559;28;20068;-65
2021/05/21 08:00:42;;;;;;;2.35;1.02;;;17.10;92.40;;;;;;5031347;28;20112;-64
2021/05/21 08:03:08;;;;;;;4.28;1.15;;;17.00;91.50;;;;;;5030912;28;20026;-64
2021/05/21 08:05:33;;;;;;;1.75;0.85;;;17.10;93.70;;;;;;5029991;28;20132;-65
2021/05/21 08:07:59;;;;;;;2.65;1.00;;;17.30;91.90;;;;;;5029601;28;20022;-66
2021/05/21 08:10:25;;;;;;;2.50;1.00;;;17.50;92.70;;;;;;5030596;28;20023;-64
2021/05/21 08:12:50;;;;;;;3.08;0.93;;;17.70;93.20;;;;;;5030848;28;20021;-64
2021/05/21 08:15:16;;;;;;;1.50;0.60;;;17.90;90.40;;;;;;5031015;28;20018;-64
2021/05/21 08:17:41;;;;;;;3.17;1.10;;;17.70;90.50;;;;;;5030803;28;20133;-65
2021/05/21 08:20:08;;;;;;;4.80;0.90;;;17.60;91.20;;;;;;5030851;28;20022;-65
2021/05/21 08:22:34;;;;;;;7.38;1.10;;;17.70;91.00;;;;;;5030429;28;20033;-66
2021/05/21 08:24:59;;;;;;;2.75;0.75;;;17.80;90.10;;;;;;5030904;28;20104;-65
2021/05/21 08:27:25;;;;;;;3.90;0.80;;;17.70;90.10;;;;;;5030824;28;20319;-65
2021/05/21 08:29:50;;;;;;;3.60;1.20;;;17.80;90.30;;;;;;5024882;28;20494;-65
2021/05/21 08:32:16;;;;;;;3.13;1.15;;;17.90;91.80;;;;;;5027486;28;20043;-65
2021/05/21 08:34:41;;;;;;;2.60;0.95;;;18.00;91.20;;;;;;5010886;28;20101;-65
2021/05/21 08:37:07;;;;;;;4.90;0.90;;;18.20;90.10;;;;;;5019690;28;20060;-65
2021/05/21 08:39:33;;;;;;;3.25;0.80;;;18.20;89.60;;;;;;5027917;28;20561;-66
2021/05/21 08:41:59;;;;;;;4.03;0.85;;;18.40;89.70;;;;;;5030380;28;20022;-65
2021/05/21 08:44:29;;;;;;;2.75;0.80;;;18.20;87.00;;;;;;5030347;28;20022;-65
2021/05/21 08:46:59;;;;;;;3.63;0.90;;;17.90;88.50;;;;;;5028838;28;20021;-66
2021/05/21 08:49:25;;;;;;;;;;;17.80;88.40;;;;;;5011064;28;20087;-65
2021/05/21 08:51:50;;;;;;;4.10;0.80;;;17.70;86.00;;;;;;5009537;28;19910;-64
2021/05/21 08:54:16;;;;;;;3.65;0.88;;;17.60;85.10;;;;;;5010172;28;20033;-65
2021/05/21 08:56:43;;;;;;;2.50;0.70;;;17.70;83.70;;;;;;5010313;28;20022;-65
2021/05/21 08:59:09;;;;;;;2.20;0.60;;;17.60;81.70;;;;;;5010567;28;20056;-65
2021/05/21 09:01:55;;;;;;;3.30;0.80;;;17.60;82.00;;;;;;5010274;28;20519;-65
2021/05/21 09:04:20;;;;;;;3.95;1.00;;;17.70;81.20;;;;;;5010690;28;20057;-65
2021/05/21 09:06:46;;;;;;;3.17;1.20;;;17.80;82.00;;;;;;5010689;28;20065;-65
2021/05/21 09:09:12;;;;;;;3.75;0.90;;;17.90;80.40;;;;;;5010658;28;20030;-64
2021/05/21 09:11:41;;;;;;;3.85;0.85;;;18.00;80.50;;;;;;5010469;28;20037;-64
2021/05/21 09:14:09;;;;;;;1.50;0.60;;;17.90;79.90;;;;;;5011012;28;20022;-65
2021/05/21 09:16:38;;;;;;;3.38;0.82;;;17.90;79.00;;;;;;5010669;28;20026;-65
2021/05/21 09:19:23;;;;;;;3.38;0.80;;;17.90;80.60;;;;;;5010471;28;20033;-65
2021/05/21 09:21:50;;;;;;;2.17;0.55;;;18.00;77.80;;;;;;5010409;28;20026;-65
2021/05/21 09:24:18;;;;;;;3.78;0.80;;;18.00;78.20;;;;;;5010600;28;20030;-65
2021/05/21 09:26:46;;;;;;;2.03;0.60;;;18.10;78.20;;;;;;5010660;28;20045;-64
2021/05/21 09:29:14;;;;;;;3.88;0.90;;;18.10;77.30;;;;;;5010499;28;20022;-65
2021/05/21 09:31:48;;;;;;;4.68;0.95;;;18.10;77.80;;;;;;5010151;28;20104;-65
2021/05/21 09:34:29;;;;;;;6.57;1.05;;;18.10;77.40;;;;;;5010632;28;20434;-65
2021/05/21 09:36:54;;;;;;;3.70;0.50;;;18.10;77.90;;;;;;5014125;28;20034;-65
2021/05/21 09:39:20;;;;;;;4.15;0.90;;;18.10;77.50;;;;;;5014067;28;20038;-65
2021/05/21 09:41:52;;;;;;;3.15;0.80;;;18.00;77.70;;;;;;5013991;28;20026;-65
2021/05/21 09:44:18;;;;;;;5.35;0.85;;;18.10;78.10;;;;;;5014089;28;20065;-65
2021/05/21 09:46:49;;;;;;;3.58;0.73;;;17.90;78.70;;;;;;5014037;28;20123;-65
2021/05/21 09:49:30;;;;;;;3.72;0.65;;;18.00;77.70;;;;;;5013772;28;20041;-64
2021/05/21 09:51:58;;;;;;;3.47;0.70;;;18.00;76.20;;;;;;5014051;28;20018;-64
2021/05/21 09:54:25;;;;;;;3.20;0.93;;;18.00;78.00;;;;;;5013726;28;20050;-65
2021/05/21 09:57:05;;;;;;;3.03;0.70;;;18.10;78.90;;;;;;5013754;28;20427;-65
2021/05/21 09:59:45;;;;;;;4.67;0.80;;;18.30;78.00;;;;;;5013541;28;20073;-65
2021/05/21 10:02:24;;;;;;;1.30;0.50;;;18.50;78.20;;;;;;5013412;28;20018;-65
2021/05/21 10:04:51;;;;;;;3.37;0.73;;;18.70;78.10;;;;;;5013565;28;20026;-65
2021/05/21 10:07:17;;;;;;;2.33;0.80;;;18.60;74.70;;;;;;5013579;28;20022;-64
2021/05/21 10:09:43;;;;;;;7.05;1.33;;;18.50;76.60;;;;;;5013377;28;20029;-65
2021/05/21 10:12:09;;;;;;;2.88;0.93;;;18.50;77.30;;;;;;5013255;28;20034;-65
2021/05/21 10:14:35;;;;;;;2.15;0.90;;;18.70;76.90;;;;;;5013341;28;20361;-65
2021/05/21 10:17:03;;;;;;;3.08;0.85;;;18.50;76.80;;;;;;5013346;28;20097;-65
2021/05/21 10:19:30;;;;;;;2.95;0.90;;;18.50;76.80;;;;;;5013039;28;20057;-65
2021/05/21 10:21:58;;;;;;;3.53;0.75;;;18.60;77.70;;;;;;5016119;28;20021;-65
2021/05/21 10:24:29;;;;;;;3.85;0.80;;;18.60;77.30;;;;;;5030147;28;20030;-65
2021/05/21 10:26:57;;;;;;;2.67;0.80;;;18.60;76.30;;;;;;5021484;28;20018;-65
2021/05/21 10:29:30;;;;;;;2.47;0.85;;;18.70;76.50;;;;;;5024280;28;20014;-65
2021/05/21 10:32:15;;;;;;;2.13;0.52;;;18.80;73.80;;;;;;5020253;28;20025;-65
2021/05/21 10:34:42;;;;;;;2.03;0.60;;;18.70;75.30;;;;;;5022296;28;20420;-65
2021/05/21 10:37:21;;;;;;;1.80;0.70;;;18.40;75.00;;;;;;5021513;28;20088;-65
2021/05/21 10:40:09;;;;;;;1.70;0.60;;;18.60;76.10;;;;;;5022263;28;20021;-65
2021/05/21 10:42:36;;;;;;;2.78;0.52;;;18.70;75.50;;;;;;5015152;28;20018;-65
2021/05/21 10:45:14;;;;;;;1.23;0.60;;;18.80;72.50;;;;;;5012798;28;20072;-66
2021/05/21 10:47:41;;;;;;;1.17;0.50;;;18.70;73.00;;;;;;5012634;28;20117;-66
2021/05/21 10:50:10;;;;;;;1.35;0.40;;;19.00;71.20;;;;;;5012558;28;20373;-66
2021/05/21 10:52:56;;;;;;;2.38;0.60;;;19.00;71.30;;;;;;5012306;28;20096;-66
2021/05/21 10:55:41;;;;;;;2.70;0.52;;;19.00;70.70;;;;;;5012575;28;20033;-66
2021/05/21 10:58:07;;;;;;;2.97;0.60;;;19.10;70.50;;;;;;5012671;28;20026;-70
2021/05/21 11:00:34;;;;;;;1.38;0.40;;;19.00;70.80;;;;;;5012495;28;20026;-70
2021/05/21 11:03:00;;;;;;;1.58;0.65;;;19.00;69.80;;;;;;5012422;28;20316;-70
2021/05/21 11:05:36;;;;;;;5.75;0.75;;;19.10;69.20;;;;;;5011194;28;20481;-70
2021/05/21 11:08:11;;;;;;;2.45;0.60;;;19.10;69.50;;;;;;5012659;28;20028;-70
2021/05/21 11:10:36;;;;;;;1.85;0.60;;;19.00;70.40;;;;;;5012482;28;20076;-70
2021/05/21 11:13:18;;;;;;;4.97;0.85;;;19.20;69.60;;;;;;5010881;28;20030;-70
2021/05/21 11:15:50;;;;;;;4.15;0.60;;;19.30;69.30;;;;;;5012360;28;20022;-71
2021/05/21 11:18:16;;;;;;;1.98;0.70;;;19.20;70.50;;;;;;5014026;28;20424;-71
2021/05/21 11:21:07;;;;;;;2.95;0.55;;;19.00;70.60;;;;;;5013467;28;20084;-71
2021/05/21 11:23:38;;;;;;;4.53;0.88;;;19.20;68.80;;;;;;5012400;28;20026;-71
2021/05/21 11:26:21;;;;;;;2.83;0.73;;;18.80;70.00;;;;;;5012506;28;20026;-71
2021/05/21 11:29:00;;;;;;;3.05;0.70;;;18.90;69.90;;;;;;5013644;28;20018;-71
2021/05/21 11:31:34;;;;;;;3.45;0.80;;;19.40;69.10;;;;;;5011875;28;20021;-70
2021/05/21 11:34:05;;;;;;;2.40;0.90;;;19.60;69.90;;;;;;5013544;28;20567;-69
2021/05/21 11:36:33;;;;;;;2.72;0.68;;;19.70;67.30;;;;;;5011617;28;20030;-70
2021/05/21 11:38:59;;;;;;;4.47;0.88;;;19.60;66.40;;;;;;5028557;28;20075;-71
2021/05/21 11:41:30;;;;;;;5.28;0.65;;;19.10;66.40;;;;;;5032257;28;20048;-69
2021/05/21 11:44:04;;;;;;;3.75;0.68;;;19.00;68.30;;;;;;5032083;28;20036;-69
2021/05/21 11:46:35;;;;;;;3.22;0.50;;;19.10;65.30;;;;;;5032183;28;20021;-70
2021/05/21 11:49:00;;;;;;;2.75;0.65;;;19.20;65.20;;;;;;5032275;28;20045;-72
2021/05/21 11:51:26;;;;;;;3.55;0.90;;;19.30;67.80;;;;;;5034218;23;20092;-70
2021/05/21 11:54:03;;;;;;;3.38;0.82;;;19.50;67.10;;;;;;4991847;28;20031;-68
2021/05/21 11:56:47;;;;;;;3.60;0.68;;;19.30;67.20;;;;;;4991964;28;20030;-69
2021/05/21 11:59:18;;;;;;;2.92;0.90;;;19.50;66.20;;;;;;4991461;28;20030;-71
2021/05/21 12:01:49;;;;;;;3.47;0.80;;;19.80;67.00;;;;;;4956221;28;20110;-68
2021/05/21 12:04:15;;;;;;;;;;;19.80;65.20;;;;;;4953572;28;20557;-69
2021/05/21 12:06:43;;;;;;;3.00;0.63;;;19.70;64.70;;;;;;4953125;28;19907;-68
2021/05/21 12:09:11;;;;;;;2.70;0.60;;;19.20;65.10;;;;;;4952707;28;20138;-68
2021/05/21 12:11:37;;;;;;;4.35;0.90;;;19.40;66.30;;;;;;4951987;28;20027;-69
2021/05/21 12:14:05;;;;;;;3.60;0.70;;;19.80;65.80;;;;;;4952690;28;20028;-68
2021/05/21 12:16:31;;;;;;;3.13;0.68;;;19.90;65.10;;;;;;4952724;28;20081;-69
2021/05/21 12:19:01;;;;;;;1.95;0.80;;;20.00;64.70;;;;;;4952745;28;20449;-69
2021/05/21 12:21:33;;;;;;;1.95;0.73;;;20.30;66.00;;;;;;4952056;28;20032;-69
2021/05/21 12:23:59;;;;;;;2.50;0.80;;;20.50;62.80;;;;;;4953191;28;20027;-69
2021/05/21 12:26:27;;;;;;;2.38;0.95;;;20.40;63.50;;;;;;4952578;28;20552;-69
2021/05/21 12:28:54;;;;;;;2.13;0.70;;;20.50;61.90;;;;;;4951440;28;20126;-69
2021/05/21 12:31:31;;;;;;;5.43;0.68;;;20.20;62.00;;;;;;4951851;28;20019;-69
2021/05/21 12:33:58;;;;;;;2.30;0.52;;;20.00;62.40;;;;;;4953000;28;20024;-69
2021/05/21 12:36:26;;;;;;;2.40;0.70;;;19.70;62.30;;;;;;4952674;28;20070;-68
2021/05/21 12:38:54;;;;;;;4.13;1.10;;;19.40;61.90;;;;;;4953098;28;20414;-68
2021/05/21 12:41:32;;;;;;;2.72;0.90;;;19.50;65.90;;;;;;4952161;28;20028;-69
2021/05/21 12:44:09;;;;;;;4.75;1.13;;;20.10;62.50;;;;;;4952774;28;20369;-69
2021/05/21 12:46:59;;;;;;;4.63;1.00;;;20.60;62.80;;;;;;4952530;28;20050;-68
2021/05/21 12:49:26;;;;;;;5.38;0.70;;;20.60;62.30;;;;;;4951926;29;20113;-69
2021/05/21 12:52:02;;;;;;;2.70;0.65;;;21.20;61.30;;;;;;4950609;28;20041;-68